Time;durP1;ratioP1;P1;durP2;ratioP2;P2;SDS_P1;SDS_P2;PMS_P1;PMS_P2;Temp;Humidity;BMP_temperature;BMP_pressure;BME280_temperature;BME280_humidity;BME280_pressure;Samples;Min_cycle;Max_cycle;Signal;HPM_P1;HPM_P2
2022/06/20 00:00:42;;;;;;;14.10;3.97;;;;;;;13.85;82.47;101182.63;5238916;28;20062;-78
2022/06/20 00:03:26;;;;;;;10.55;3.90;;;;;;;13.89;82.55;101190.44;5174504;28;20065;-77
2022/06/20 00:05:57;;;;;;;13.05;3.75;;;;;;;13.73;81.83;101188.09;5172249;28;20089;-79
2022/06/20 00:08:29;;;;;;;13.37;4.23;;;;;;;13.83;81.90;101176.56;5191205;28;20062;-85
2022/06/20 00:11:00;;;;;;;10.57;3.20;;;;;;;13.72;81.60;101175.03;5191244;28;20343;-79
2022/06/20 00:13:34;;;;;;;13.70;3.50;;;;;;;13.72;81.75;101186.38;5190895;28;20119;-84
2022/06/20 00:16:05;;;;;;;13.65;4.60;;;;;;;13.54;81.89;101186.72;5191316;28;20507;-78
2022/06/20 00:18:37;;;;;;;12.87;3.67;;;;;;;13.68;82.24;101201.31;5190437;28;20117;-77
2022/06/20 00:21:14;;;;;;;9.47;3.03;;;;;;;13.55;82.07;101204.19;5190990;28;20035;-76
2022/06/20 00:23:46;;;;;;;12.13;4.63;;;;;;;13.52;81.91;101220.81;5190251;28;20505;-85
2022/06/20 00:26:18;;;;;;;14.02;3.95;;;;;;;13.76;82.27;101244.84;5190998;28;20091;-81
2022/06/20 00:28:49;;;;;;;16.20;4.43;;;;;;;13.86;82.01;101262.09;5190921;28;20030;-76
2022/06/20 00:31:21;;;;;;;12.90;3.43;;;;;;;13.89;82.36;101254.19;5191418;28;20171;-77
2022/06/20 00:33:53;;;;;;;11.32;3.42;;;;;;;13.83;81.46;101254.31;5191383;28;20031;-82
2022/06/20 00:36:25;;;;;;;10.27;3.73;;;;;;;13.89;80.63;101272.53;5191183;28;20394;-74
2022/06/20 00:38:56;;;;;;;12.43;3.43;;;;;;;13.99;80.57;101289.81;5191614;28;20125;-79
2022/06/20 00:41:34;;;;;;;11.63;3.88;;;;;;;13.92;81.75;101303.06;5191853;28;20082;-82
2022/06/20 00:44:13;;;;;;;12.48;3.00;;;;;;;13.80;81.96;101317.25;5193014;28;20487;-77
2022/06/20 00:46:52;;;;;;;13.52;3.90;;;;;;;13.66;82.67;101360.25;5190829;28;20041;-77
2022/06/20 00:49:29;;;;;;;14.10;3.65;;;;;;;13.69;83.91;101398.66;5190834;28;20030;-82
2022/06/20 00:52:16;;;;;;;13.85;4.15;;;;;;;13.60;82.49;101415.38;5190992;28;20026;-76
2022/06/20 00:54:57;;;;;;;13.10;4.05;;;;;;;13.75;83.22;101455.31;5191291;28;20069;-85
2022/06/20 00:57:36;;;;;;;9.98;3.47;;;;;;;13.69;83.26;101437.97;5191292;28;20034;-77
2022/06/20 01:00:19;;;;;;;11.25;2.63;;;;;;;13.75;83.86;101413.41;5190812;28;20053;-79
2022/06/20 01:02:55;;;;;;;9.32;3.70;;;;;;;13.65;81.87;101383.88;5191195;28;20052;-79
2022/06/20 01:05:36;;;;;;;7.93;2.75;;;;;;;13.81;82.75;101367.03;5190857;28;20042;-76
2022/06/20 01:08:14;;;;;;;10.98;3.35;;;;;;;13.82;84.57;101368.75;5190234;28;20041;-78
2022/06/20 01:10:58;;;;;;;14.82;5.20;;;;;;;13.78;85.74;101364.47;5191040;28;20057;-77
2022/06/20 01:13:30;;;;;;;13.27;3.67;;;;;;;13.73;86.44;101340.06;5191506;28;20085;-77
2022/06/20 01:16:17;;;;;;;16.42;3.92;;;;;;;13.69;86.31;101338.41;5193628;28;20041;-78
2022/06/20 01:18:49;;;;;;;12.20;3.05;;;;;;;13.58;86.78;101322.00;5192759;28;20885;-77
2022/06/20 01:21:30;;;;;;;13.13;3.70;;;;;;;13.55;87.92;101320.28;5193275;28;20068;-76
2022/06/20 01:24:14;;;;;;;12.00;3.80;;;;;;;13.55;88.32;101309.81;5194155;28;20455;-82
2022/06/20 01:27:15;;;;;;;9.95;3.15;;;;;;;13.50;88.05;101306.41;5192770;28;20487;-75
2022/06/20 01:29:48;;;;;;;8.25;3.10;;;;;;;13.60;88.69;101294.88;5189863;28;20537;-81
2022/06/20 01:32:19;;;;;;;11.20;3.33;;;;;;;13.69;89.00;101286.00;5190045;28;20034;-76
2022/06/20 01:34:50;;;;;;;11.47;2.90;;;;;;;13.59;88.22;101287.91;5191311;28;20423;-81
2022/06/20 01:37:23;;;;;;;13.27;3.87;;;;;;;13.43;87.86;101279.47;5194354;28;20608;-80
2022/06/20 01:40:05;;;;;;;13.20;3.42;;;;;;;13.43;88.72;101282.06;5194325;28;20602;-85
2022/06/20 01:42:39;;;;;;;8.25;3.17;;;;;;;13.37;88.91;101263.84;5194661;28;20035;-77
2022/06/20 01:48:17;;;;;;;13.82;3.58;;;;;;;13.25;89.08;101254.41;5194694;28;20038;-77
2022/06/20 01:50:49;;;;;;;11.23;3.58;;;;;;;13.06;89.39;101246.00;5193697;28;20615;-85
2022/06/20 01:53:26;;;;;;;10.67;3.87;;;;;;;12.99;89.73;101257.41;5194434;28;20070;-80
2022/06/20 01:55:58;;;;;;;10.38;3.38;;;;;;;13.02;90.23;101236.44;5193805;28;20062;-76
2022/06/20 01:58:35;;;;;;;11.23;3.70;;;;;;;12.95;89.78;101240.91;5193350;28;20066;-80
2022/06/20 02:01:07;;;;;;;9.65;3.10;;;;;;;12.89;89.98;101248.00;5193145;28;20081;-76
2022/06/20 02:03:41;;;;;;;11.80;4.28;;;;;;;12.87;89.91;101241.94;5193642;28;20034;-82
2022/06/20 02:06:16;;;;;;;16.42;3.75;;;;;;;12.98;89.64;101232.16;5193336;28;20125;-81
2022/06/20 02:08:57;;;;;;;8.30;3.15;;;;;;;12.93;89.13;101231.38;5193545;28;20603;-76
2022/06/20 02:11:35;;;;;;;13.85;3.22;;;;;;;12.88;88.43;101227.94;5193157;28;20030;-77
2022/06/20 02:14:24;;;;;;;11.63;3.55;;;;;;;12.85;88.77;101215.78;5193169;28;20380;-81
2022/06/20 02:17:00;;;;;;;11.43;3.33;;;;;;;12.82;87.69;101212.34;5192863;28;20394;-82
2022/06/20 02:19:35;;;;;;;10.57;3.30;;;;;;;12.74;87.43;101200.25;5193087;28;20138;-74
2022/06/20 02:22:09;;;;;;;16.77;4.60;;;;;;;12.85;88.23;101196.63;5193302;28;20030;-83
2022/06/20 02:24:45;;;;;;;13.88;4.80;;;;;;;12.77;88.05;101194.13;5193476;28;20053;-76
2022/06/20 02:27:28;;;;;;;10.43;3.17;;;;;;;12.82;87.90;101196.66;5192508;28;20041;-84
2022/06/20 02:30:01;;;;;;;12.45;3.85;;;;;;;12.70;87.97;101192.47;5192743;28;20049;-77
2022/06/20 02:32:38;;;;;;;11.35;4.00;;;;;;;12.69;87.47;101195.97;5192485;28;20078;-77
2022/06/20 02:35:14;;;;;;;10.25;3.17;;;;;;;12.63;87.06;101189.06;5193125;28;20038;-78
2022/06/20 02:37:47;;;;;;;12.38;3.60;;;;;;;12.67;86.75;101192.50;5193667;28;20030;-84
2022/06/20 02:40:22;;;;;;;13.52;3.88;;;;;;;12.68;86.85;101197.72;5194663;28;20038;-85
2022/06/20 02:43:05;;;;;;;25.42;4.53;;;;;;;12.78;86.49;101190.59;5195140;28;20510;-83
2022/06/20 02:45:38;;;;;;;9.13;2.60;;;;;;;12.73;87.39;101185.41;5194695;28;20045;-81
2022/06/20 02:48:12;;;;;;;14.32;3.20;;;;;;;12.68;86.77;101183.78;5194275;28;20062;-78
2022/06/20 02:50:50;;;;;;;13.48;2.55;;;;;;;12.60;86.55;101176.03;5194874;28;20049;-82
2022/06/20 02:53:27;;;;;;;12.70;3.58;;;;;;;12.61;86.90;101167.31;5194920;28;20127;-84
2022/06/20 02:55:59;;;;;;;10.05;2.60;;;;;;;12.65;86.66;101157.66;5194218;28;20444;-83
2022/06/20 02:58:34;;;;;;;12.23;3.28;;;;;;;12.51;86.98;101152.63;5195248;28;20035;-82
2022/06/20 03:01:18;;;;;;;10.48;2.97;;;;;;;12.45;86.78;101151.00;5194279;28;20045;-84
2022/06/20 03:03:54;;;;;;;11.70;3.90;;;;;;;12.40;86.30;101142.34;5194106;28;20030;-82
2022/06/20 03:06:44;;;;;;;8.80;3.03;;;;;;;12.43;86.79;101134.47;5261613;28;20066;-83
2022/06/20 03:09:20;;;;;;;9.40;2.75;;;;;;;12.42;86.63;101148.41;5194578;28;20070;-82
2022/06/20 03:11:51;;;;;;;11.00;3.25;;;;;;;12.45;86.72;101153.59;5194333;28;20026;-84
2022/06/20 03:14:30;;;;;;;10.87;3.00;;;;;;;12.49;86.99;101157.88;5193932;28;20053;-85
2022/06/20 03:17:04;;;;;;;10.73;3.78;;;;;;;12.58;86.85;101151.69;5194283;28;20038;-76
2022/06/20 03:19:40;;;;;;;10.93;3.50;;;;;;;12.50;86.40;101154.41;5192573;28;20111;-81
2022/06/20 03:22:16;;;;;;;9.10;2.75;;;;;;;12.52;85.88;101160.47;5192628;28;20026;-75
2022/06/20 03:24:50;;;;;;;11.38;3.10;;;;;;;12.52;86.45;101184.00;5191957;28;20081;-77
2022/06/20 03:27:26;;;;;;;10.18;3.28;;;;;;;12.41;85.33;101183.28;5192669;28;20061;-78
2022/06/20 03:30:03;;;;;;;15.30;3.35;;;;;;;12.38;85.43;101180.72;5192602;28;20420;-79
2022/06/20 03:32:35;;;;;;;13.82;3.05;;;;;;;12.43;85.75;101181.53;5192851;28;20108;-82
2022/06/20 03:35:06;;;;;;;8.47;3.13;;;;;;;12.42;85.37;101181.56;5198773;28;20938;-75
2022/06/20 03:37:38;;;;;;;9.93;2.97;;;;;;;12.38;85.41;101185.94;5197116;28;20037;-79
2022/06/20 03:40:10;;;;;;;8.63;2.57;;;;;;;12.53;87.04;101204.03;5191816;28;20141;-78
2022/06/20 03:42:43;;;;;;;15.60;3.97;;;;;;;12.43;84.80;101210.28;5191556;28;20133;-80
2022/06/20 03:45:15;;;;;;;7.53;2.70;;;;;;;12.51;84.78;101216.28;5258463;28;20046;-81
2022/06/20 03:48:08;;;;;;;;;;;;;;;12.73;84.39;101223.81;5191668;28;20102;-79
2022/06/20 03:50:49;;;;;;;10.13;3.25;;;;;;;12.73;85.49;101235.13;5192481;28;20349;-76
2022/06/20 03:53:28;;;;;;;8.90;2.38;;;;;;;12.72;84.57;101249.13;5191416;28;20030;-81
2022/06/20 03:56:38;;;;;;;11.23;3.50;;;;;;;12.86;85.08;101255.88;5190914;28;20191;-76
2022/06/20 03:59:28;;;;;;;11.73;3.47;;;;;;;12.76;83.95;101249.94;5231913;28;20071;-83
2022/06/20 04:02:06;;;;;;;10.73;2.60;;;;;;;12.68;83.74;101247.41;5233013;28;20032;-77
2022/06/20 04:04:56;;;;;;;9.65;3.20;;;;;;;12.79;84.69;101247.25;5232645;28;20073;-77
2022/06/20 04:07:42;;;;;;;7.22;2.67;;;;;;;12.86;85.07;101256.75;5213342;28;20044;-77
2022/06/20 04:13:40;;;;;;;9.32;2.67;;;;;;;13.02;85.88;101254.75;5215539;28;20046;-81
2022/06/20 04:16:18;;;;;;;9.73;2.40;;;;;;;13.11;85.43;101259.00;5233247;28;20037;-76
2022/06/20 04:19:00;;;;;;;8.75;2.92;;;;;;;13.07;84.65;101270.41;5236205;28;20040;-77
2022/06/20 04:21:56;;;;;;;11.90;3.33;;;;;;;13.11;84.36;101278.19;5235891;28;20501;-77
2022/06/20 04:24:58;;;;;;;9.23;2.40;;;;;;;13.14;84.45;101279.91;5172599;28;20093;-85
2022/06/20 04:27:36;;;;;;;11.93;3.30;;;;;;;13.02;84.01;101278.31;5158486;28;20638;-79
2022/06/20 04:30:17;;;;;;;8.02;2.50;;;;;;;13.08;85.12;101286.06;5171530;28;20058;-77
2022/06/20 04:32:53;;;;;;;12.70;2.95;;;;;;;12.97;84.58;101285.38;5172575;28;20031;-78
2022/06/20 04:35:32;;;;;;;10.75;2.97;;;;;;;12.98;85.31;101287.13;5181764;28;20223;-82
2022/06/20 04:38:42;;;;;;;6.97;2.45;;;;;;;13.07;85.43;101286.09;5211739;28;20034;-79
2022/06/20 04:41:20;;;;;;;7.35;2.72;;;;;;;13.06;85.54;101287.00;5190216;28;20527;-78
2022/06/20 04:44:01;;;;;;;9.07;2.50;;;;;;;13.21;86.23;101288.53;5190220;28;20762;-79
2022/06/20 04:47:00;;;;;;;9.52;3.58;;;;;;;13.18;85.83;101294.66;5188993;28;20463;-77
2022/06/20 04:49:33;;;;;;;9.00;3.28;;;;;;;13.16;85.08;101301.66;5190227;28;20042;-78
2022/06/20 04:52:06;;;;;;;;;;;;;;;13.38;84.41;101301.34;5191355;28;20042;-79
2022/06/20 04:54:38;;;;;;;10.90;3.28;;;;;;;13.30;84.75;101304.09;5192770;28;19913;-79
2022/06/20 04:57:13;;;;;;;14.07;3.65;;;;;;;13.29;84.42;101312.81;5189859;28;20133;-85
2022/06/20 04:59:44;;;;;;;11.35;2.38;;;;;;;13.38;84.82;101312.72;5191733;28;20045;-80
2022/06/20 05:02:20;;;;;;;14.27;3.20;;;;;;;13.45;84.21;101306.47;5225931;28;20037;-79
2022/06/20 05:04:54;;;;;;;10.77;3.40;;;;;;;13.55;84.56;101311.56;5231974;28;20062;-80
2022/06/20 05:07:30;;;;;;;10.07;3.40;;;;;;;13.55;83.84;101316.81;5230680;28;20045;-80
2022/06/20 05:10:26;;;;;;;13.07;2.78;;;;;;;13.73;83.59;101320.88;5234804;28;20549;-79
